Terminal Aerodrome Forecast
Issued by NWS Billings, MT

Home | Current Version | Previous Version | Text Only | Print | Product List | Glossary On
Versions: 1 2 3 4 5 6 7 8 9 10 11 12 13 14
000
FTUS45 KBYZ 302328
TAFBIL
TAF
KBIL 302328Z 3100/3124 03010KT P6SM VCSH SCT020 BKN035
     FM310400 VRB05KT 6SM -SHRA SCT020 BKN035
     FM310900 33011G20KT 6SM -SHRA BR BKN002 BKN020 OVC035
     FM311600 34013G25KT 3SM -RA BR SCT002 SCT015 OVC040
     FM312200 36016G30KT 6SM -SHRA BR BKN002 OVC012=

USA.gov is the U.S. government's official web portal to all federal, state and local government web resources and services.